New Plymouth, Idaho
Current Conditions -  °F | °C
As of 9:53 PM on Friday 19 Dec 2014 (Local Time) from KONO Reporting Station
Haze Haze  
Wind Chill: 37°   Ceiling: Unl
Heat Index: 37°   Visibility: 5mi
Dew Point: 35°   Wind: 3mph
Humidity: 93%   Direction: 70°ENE
Pressure: 30.1"   Gusts: NA
Location:  43.97°N, 116.82°W
Report Text: KONO 200453Z AUTO 07003KT 5SM BR FEW050 03/02 A3010 RMK AO2 SLP208 T00280017
Loading
Personal Weather Stations






























Interactive Weather Map New forecast layout! Learn more

10-Day Weather Forecast

Advertisements
Track Severe Weather on mobile